Latest Weather Observations for Barrow Island

IDW60801

Issued at 6:04 pm WST Sunday 28 August 2016 (issued every 30 minutes, with the page automatically refreshed every 10 minutes)

About weather observations | Map of weather stations | Latest weather observations for WA | Other Formats
Station Details ID: 005094 Name: BARROW ISLAND AIRPORT Lat: -20.87 Lon: 115.41 Height: 6.4 m
Data from the previous 72 hours. | See also: Recent months at Barrow Island
Date/Time
WST
Temp
°C
App
Temp
°C
Dew
Point
°C
Rel
Hum
%
Delta-T
°C
Wind Press
QNH
hPa
Press
MSL
hPa
Rain since
9am
mm
Dir  Spd
km/h
Gust
km/h
Spd
kts
Gust
kts
28/06:00pm 21.6 18.1 12.2 55 5.3 WSW 22 30 12 16 1011.7 1011.7 0.0
28/05:30pm 21.6 18.5 13.5 60 4.7 WSW 22 26 12 14 1011.8 - 0.0
28/05:00pm 21.6 18.0 13.0 58 4.9 WSW 24 30 13 16 1012.0 - 0.0
28/04:30pm 21.7 18.4 12.8 57 5.1 WSW 22 30 12 16 1011.6 - 0.0
28/04:00pm 21.8 18.7 13.4 59 4.8 WSW 22 30 12 16 1012.2 - 0.0
28/03:30pm 22.0 18.7 12.8 56 5.2 SW 22 28 12 15 1012.2 - 0.0
28/03:00pm 22.3 19.5 13.1 56 5.3 SW 20 26 11 14 1011.7 1011.7 0.0
28/02:30pm 21.9 18.8 12.2 54 5.5 SSW 20 22 11 12 1012.3 - 0.0
28/02:00pm 22.1 19.4 12.9 56 5.3 SSW 19 22 10 12 1012.3 - 0.0
28/01:30pm 21.9 19.0 13.0 57 5.1 S 20 24 11 13 1012.8 - 0.0
28/01:00pm 21.3 18.5 12.7 58 4.9 SSW 19 24 10 13 1013.1 - 0.0
28/12:30pm 22.3 18.9 12.5 53 5.6 S 22 28 12 15 1013.2 - 0.0
28/12:00pm 21.9 18.4 12.2 54 5.5 S 22 30 12 16 1013.7 1013.7 0.0
28/11:30am 21.4 17.6 12.5 57 5.0 S 24 28 13 15 1014.1 - 0.0
28/11:00am 21.5 17.4 12.6 57 5.0 S 26 30 14 16 1014.6 - 0.0
28/10:30am 21.2 17.0 13.4 61 4.5 S 28 32 15 17 1014.7 - 0.0
28/10:00am 21.1 17.2 13.3 61 4.5 S 26 33 14 18 1015.0 - 0.0
28/09:30am 20.6 15.8 12.8 61 4.4 S 30 35 16 19 1015.0 - 0.0
28/09:00am 20.3 14.8 12.3 60 4.5 S 33 43 18 23 1014.9 1014.9 0.0
28/08:30am 20.4 15.3 13.6 65 3.9 S 33 37 18 20 1014.7 - 0.0
28/08:00am 19.7 15.5 15.6 77 2.4 S 32 37 17 20 1014.4 - 0.0
28/07:30am 19.7 15.5 16.3 81 2.0 S 33 39 18 21 1013.6 - 0.0
28/07:00am 19.6 15.6 16.8 84 1.7 S 33 39 18 21 1013.2 - 0.0
28/06:30am 20.1 16.2 16.9 82 1.9 S 33 37 18 20 1013.2 - 0.0
28/06:00am 20.1 16.1 16.7 81 2.1 S 33 39 18 21 1012.5 1012.5 0.0
28/05:30am 20.6 17.0 17.2 81 2.1 S 32 37 17 20 1012.4 - 0.0
28/05:00am 20.9 19.0 17.7 82 2.0 S 24 30 13 16 1011.9 - 0.0
28/04:30am 21.1 19.5 18.3 84 1.7 S 24 28 13 15 1012.0 - 0.0
28/04:00am 20.7 18.1 17.9 84 1.7 S 28 30 15 16 1011.9 - 0.0
28/03:30am 21.6 18.7 18.0 80 2.2 SSW 30 35 16 19 1012.1 - 0.0
28/03:00am 21.5 20.9 18.9 85 1.6 SSW 20 24 11 13 1012.0 1012.0 0.0
28/02:30am 21.1 19.4 18.9 87 1.4 SSW 26 32 14 17 1012.2 - 0.0
28/02:00am 21.2 19.2 19.1 88 1.3 SSW 28 32 15 17 1012.2 - 0.0
28/01:30am 21.5 18.9 18.7 84 1.8 SSW 30 35 16 19 1012.3 - 0.0
28/01:00am 22.8 22.6 17.7 73 3.2 W 15 19 8 10 1012.2 - 0.0
28/12:30am 22.7 22.6 17.8 74 3.0 WNW 15 19 8 10 1012.5 - 0.0
28/12:00am 23.6 22.3 17.3 67 3.9 W 20 26 11 14 1012.9 1012.9 0.0
 
Date/Time
WST
Temp
°C
App
Temp
°C
Dew
Point
°C
Rel
Hum
%
Delta-T
°C
Wind Press
QNH
hPa
Press
MSL
hPa
Rain since
9am
mm
Dir  Spd
km/h
Gust
km/h
Spd
kts
Gust
kts
27/11:30pm 23.6 22.1 17.8 70 3.6 WNW 22 28 12 15 1013.1 - 0.0
27/11:00pm 23.6 22.6 18.0 71 3.5 WNW 20 24 11 13 1013.0 - 0.0
27/10:30pm 23.6 22.9 18.3 72 3.3 WNW 19 26 10 14 1013.0 - 0.0
27/10:00pm 23.5 22.8 18.6 74 3.1 WNW 20 28 11 15 1013.1 - 0.0
27/09:30pm 23.8 23.6 19.3 76 2.9 W 19 20 10 11 1013.1 - 0.0
27/09:00pm 24.0 23.0 17.5 67 4.0 WNW 19 24 10 13 1013.0 1013.0 0.0
27/08:30pm 24.0 23.2 17.0 65 4.3 WNW 17 22 9 12 1013.0 - 0.0
27/08:00pm 23.9 23.3 16.7 64 4.4 WNW 15 20 8 11 1012.9 - 0.0
27/07:30pm 23.8 23.4 17.1 66 4.1 WNW 15 20 8 11 1012.6 - 0.0
27/07:00pm 23.7 23.0 16.5 64 4.4 WNW 15 20 8 11 1012.4 - 0.0
27/06:30pm 23.5 22.8 15.5 60 4.8 WNW 13 15 7 8 1012.1 - 0.0
27/06:00pm 24.1 22.0 14.8 56 5.5 WNW 19 24 10 13 1012.0 1012.0 0.0
27/05:30pm 25.2 22.1 14.6 51 6.3 WNW 24 28 13 15 1012.1 - 0.0
27/05:00pm 26.2 23.3 13.0 44 7.7 WNW 20 28 11 15 1011.6 - 0.0
27/04:30pm 26.4 24.8 13.9 46 7.4 WNW 15 20 8 11 1011.5 - 0.0
27/04:00pm 26.9 24.8 14.6 46 7.4 WNW 19 28 10 15 1011.6 - 0.0
27/03:30pm 25.2 24.7 14.9 52 6.2 N 11 22 6 12 1011.5 - 0.0
27/03:00pm 24.4 23.8 17.6 66 4.2 SE 17 22 9 12 1011.5 1011.5 0.0
27/02:30pm 24.7 24.7 18.9 70 3.7 SE 17 19 9 10 1011.6 - 0.0
27/02:00pm 23.8 24.3 18.4 72 3.4 ESE 13 17 7 9 1012.0 - 0.0
27/01:30pm 23.5 24.2 18.8 75 3.0 E 13 15 7 8 1012.6 - 0.0
27/01:00pm 23.9 24.3 19.0 74 3.1 E 15 19 8 10 1013.0 - 0.0
27/12:30pm 23.9 24.2 18.8 73 3.2 ESE 15 17 8 9 1013.4 - 0.0
27/12:00pm 23.9 24.1 19.4 76 2.9 E 17 19 9 10 1013.7 1013.7 0.0
27/11:30am 23.9 24.1 19.4 76 2.9 ESE 17 20 9 11 1014.1 - 0.0
27/11:00am 23.3 23.3 19.0 77 2.7 ESE 17 20 9 11 1014.4 - 0.0
27/10:30am 23.6 23.6 18.9 75 3.0 SE 17 20 9 11 1014.6 - 0.0
27/10:00am 23.3 24.1 19.0 77 2.7 SE 13 15 7 8 1014.7 - 0.0
27/09:30am 22.6 23.9 19.4 82 2.0 SE 11 13 6 7 1014.8 - 0.0
27/09:00am 21.8 22.5 19.7 88 1.3 SSE 15 17 8 9 1014.5 1014.5 0.2
27/08:30am 20.9 21.2 18.8 88 1.3 S 15 19 8 10 1014.5 - 0.2
27/08:00am 20.5 22.2 18.4 88 1.3 SW 7 11 4 6 1014.5 - 0.2
27/07:30am 20.6 22.1 18.0 85 1.6 NNW 7 11 4 6 1014.0 - 0.2
27/07:00am 21.4 21.8 19.1 87 1.5 SE 15 17 8 9 1013.5 - 0.0
27/06:30am 21.2 22.1 18.4 84 1.7 ESE 11 15 6 8 1013.4 - 0.0
27/06:00am 20.8 22.5 18.0 84 1.7 NNW 6 7 3 4 1013.4 1013.4 0.0
27/05:30am 19.8 22.2 17.0 84 1.7 CALM 0 0 0 0 1013.1 - 0.0
27/05:00am 19.0 20.2 16.0 83 1.8 NW 4 7 2 4 1012.8 - 0.0
27/04:30am 18.1 17.6 14.8 81 1.9 NW 11 11 6 6 1012.7 - 0.0
27/04:00am 18.8 20.6 15.5 81 1.9 CALM 0 2 0 1 1012.7 - 0.0
27/03:30am 18.5 19.1 15.2 81 1.9 N 6 7 3 4 1012.7 - 0.0
27/03:00am 18.2 17.7 14.9 81 1.9 N 11 15 6 8 1012.6 1012.6 0.0
27/02:30am 18.5 17.3 15.0 80 2.0 N 15 17 8 9 1012.8 - 0.0
27/02:00am 19.0 17.4 14.9 77 2.4 N 17 19 9 10 1012.7 - 0.0
27/01:30am 18.7 17.2 15.2 80 2.0 NNE 17 20 9 11 1012.9 - 0.0
27/01:00am 18.5 17.4 15.2 81 1.9 N 15 17 8 9 1013.2 - 0.0
27/12:30am 19.1 17.7 15.6 80 2.1 N 17 17 9 9 1013.4 - 0.0
27/12:00am 19.2 18.4 16.1 82 1.8 N 15 15 8 8 1013.8 1013.8 0.0
 
Date/Time
WST
Temp
°C
App
Temp
°C
Dew
Point
°C
Rel
Hum
%
Delta-T
°C
Wind Press
QNH
hPa
Press
MSL
hPa
Rain since
9am
mm
Dir  Spd
km/h
Gust
km/h
Spd
kts
Gust
kts
26/11:30pm 19.2 18.8 16.1 82 1.8 N 13 15 7 8 1013.9 - 0.0
26/11:00pm 19.8 18.4 16.6 82 1.9 NNE 19 20 10 11 1013.8 - 0.0
26/10:30pm 19.6 19.2 16.1 80 2.1 NNE 13 15 7 8 1014.2 - 0.0
26/10:00pm 19.8 19.4 16.1 79 2.2 NNE 13 13 7 7 1014.4 - 0.0
26/09:30pm 20.3 20.7 16.3 78 2.4 NE 9 11 5 6 1015.0 - 0.0
26/09:00pm 19.7 19.9 15.8 78 2.3 NNE 9 11 5 6 1015.2 1015.2 0.0
26/08:30pm 20.5 20.9 16.3 77 2.5 NE 9 11 5 6 1015.3 - 0.0
26/08:00pm 20.8 21.1 16.0 74 2.9 NNE 9 13 5 7 1015.2 - 0.0
26/07:30pm 22.2 21.8 17.1 73 3.1 NE 15 17 8 9 1014.8 - 0.0
26/07:00pm 22.4 21.5 16.9 71 3.4 NE 17 20 9 11 1014.4 - 0.0
26/06:30pm 22.3 20.7 16.6 70 3.5 NE 20 24 11 13 1014.1 - 0.0
26/06:00pm 22.5 20.4 16.1 67 3.9 NE 22 28 12 15 1013.9 1013.9 0.0
26/05:30pm 23.0 19.6 15.8 64 4.3 NE 28 32 15 17 1013.6 - 0.0
26/05:00pm 23.2 19.7 15.5 62 4.6 NE 28 32 15 17 1013.5 - 0.0
26/04:30pm 23.4 19.0 14.1 56 5.5 NE 30 35 16 19 1013.4 - 0.0
26/04:00pm 23.6 18.8 14.0 55 5.6 NE 32 37 17 20 1013.3 - 0.0
26/03:30pm 23.7 19.6 14.9 57 5.2 NE 30 35 16 19 1013.5 - 0.0
26/03:00pm 23.8 19.7 15.0 57 5.3 NE 30 33 16 18 1013.7 1013.7 0.0
26/02:30pm 23.7 18.8 13.8 53 5.8 NE 32 35 17 19 1013.9 - 0.0
26/02:00pm 23.7 18.8 13.6 53 5.9 NE 32 37 17 20 1014.2 - 0.0
26/01:30pm 23.9 18.8 13.2 51 6.2 NE 32 37 17 20 1014.7 - 0.0
26/01:00pm 23.8 17.6 11.5 46 6.9 NE 35 43 19 23 1014.9 - 0.0
26/12:30pm 24.3 18.2 11.6 45 7.2 NE 35 41 19 22 1015.3 - 0.0
26/12:00pm 23.9 18.6 12.5 49 6.5 NE 32 37 17 20 1015.5 1015.5 0.0
26/11:30am 23.8 18.4 12.8 50 6.3 NE 33 39 18 21 1016.0 - 0.0
26/11:00am 23.8 18.0 11.5 46 6.9 NE 33 39 18 21 1016.1 - 0.0
26/10:30am 23.4 18.4 12.1 49 6.4 ENE 30 33 16 18 1016.5 - 0.0
26/10:00am 23.0 18.8 13.5 55 5.5 ENE 28 32 15 17 1016.6 - 0.0
26/09:30am 22.4 19.4 13.7 58 5.0 E 22 26 12 14 1016.7 - 0.0
26/09:00am 21.6 17.5 11.6 53 5.6 ESE 24 26 13 14 1016.7 1016.7 0.0
26/08:30am 21.6 18.2 12.5 56 5.2 ESE 22 24 12 13 1016.6 - 0.0
26/08:00am 21.6 18.9 13.0 58 4.9 ESE 19 20 10 11 1016.2 - 0.0
26/07:30am 20.7 17.9 13.2 62 4.3 ESE 20 24 11 13 1015.8 - 0.0
26/07:00am 20.1 17.6 13.6 66 3.7 ESE 19 22 10 12 1015.7 - 0.0
26/06:30am 19.7 17.1 13.9 69 3.3 ESE 20 22 11 12 1015.4 - 0.0
26/06:00am 19.7 17.5 14.5 72 3.0 ESE 19 22 10 12 1015.1 1015.1 0.0
26/05:30am 19.7 18.1 15.1 75 2.7 ESE 17 20 9 11 1014.8 - 0.0
26/05:00am 19.5 17.6 15.2 76 2.5 ESE 19 20 10 11 1014.6 - 0.0
26/04:30am 19.8 18.2 15.9 78 2.3 ESE 19 20 10 11 1014.5 - 0.0
26/04:00am 19.7 18.2 16.3 81 2.0 SE 19 20 10 11 1014.4 - 0.0
26/03:30am 19.6 18.6 16.6 83 1.8 SE 17 20 9 11 1014.6 - 0.0
26/03:00am 19.4 19.2 16.6 84 1.7 SE 13 17 7 9 1014.6 1014.6 0.0
26/02:30am 19.4 19.1 16.4 83 1.8 SE 13 15 7 8 1014.6 - 0.0
26/02:00am 19.4 19.0 16.1 81 2.0 SE 13 13 7 7 1014.8 - 0.0
26/01:30am 17.8 18.4 12.0 69 3.2 CALM 0 0 0 0 1015.2 - 0.0
26/01:00am 17.0 17.4 11.1 68 3.2 CALM 0 0 0 0 1015.4 - 0.0
26/12:30am 17.1 17.3 10.5 65 3.5 CALM 0 0 0 0 1015.7 - 0.0
26/12:00am 17.2 16.2 11.0 67 3.3 N 7 7 4 4 1016.0 1016.0 0.0
 
Date/Time
WST
Temp
°C
App
Temp
°C
Dew
Point
°C
Rel
Hum
%
Delta-T
°C
Wind Press
QNH
hPa
Press
MSL
hPa
Rain since
9am
mm
Dir  Spd
km/h
Gust
km/h
Spd
kts
Gust
kts
25/11:30pm 16.6 15.0 10.2 66 3.4 N 9 11 5 6 1016.2 - 0.0
25/11:00pm 16.7 14.7 10.1 65 3.5 N 11 13 6 7 1016.2 - 0.0
25/10:30pm 16.7 15.2 10.5 67 3.3 N 9 11 5 6 1016.1 - 0.0
25/10:00pm 16.7 14.8 10.5 67 3.3 N 11 13 6 7 1016.0 - 0.0
25/09:30pm 16.9 14.2 10.5 66 3.4 N 15 17 8 9 1016.1 - 0.0
25/09:00pm 16.9 14.0 9.6 62 3.8 NNW 15 17 8 9 1016.1 1016.1 0.0
25/08:30pm 17.5 14.1 9.2 58 4.3 N 17 19 9 10 1016.1 - 0.0
25/08:00pm 18.2 14.9 9.5 57 4.6 N 17 19 9 10 1016.1 - 0.0
25/07:30pm 18.8 15.5 9.6 55 4.9 N 17 20 9 11 1016.0 - 0.0
25/07:00pm 19.9 16.6 9.5 51 5.5 N 17 20 9 11 1015.8 - 0.0
25/06:30pm 20.5 17.3 10.0 51 5.6 N 17 19 9 10 1015.5 - 0.0

Other Formats:

Comma delimited format used in spreadsheet applications
http://www.bom.gov.au/fwo/IDW60801/IDW60801.95304.axf

JavaScript Object Notation format (JSON) in row-major order
http://www.bom.gov.au/fwo/IDW60801/IDW60801.95304.json